sensor_id;sensor_type;location;lat;lon;timestamp;P1;durP1;ratioP1;P2;durP2;ratioP2
22916;SDS011;11624;53.250;7.456;2023-08-07T00:00:31;14.57;;;5.53;;
22916;SDS011;11624;53.250;7.456;2023-08-07T00:02:59;13.98;;;5.15;;
22916;SDS011;11624;53.250;7.456;2023-08-07T00:05:27;13.45;;;5.00;;
22916;SDS011;11624;53.250;7.456;2023-08-07T00:07:55;12.05;;;5.07;;
22916;SDS011;11624;53.250;7.456;2023-08-07T00:10:23;14.35;;;5.32;;
22916;SDS011;11624;53.250;7.456;2023-08-07T00:12:53;19.13;;;5.03;;
22916;SDS011;11624;53.250;7.456;2023-08-07T00:15:21;11.98;;;4.95;;
22916;SDS011;11624;53.250;7.456;2023-08-07T00:17:50;12.20;;;5.28;;
22916;SDS011;11624;53.250;7.456;2023-08-07T00:20:18;12.50;;;5.00;;
22916;SDS011;11624;53.250;7.456;2023-08-07T00:22:46;11.73;;;5.00;;
22916;SDS011;11624;53.250;7.456;2023-08-07T00:25:14;14.65;;;5.57;;
22916;SDS011;11624;53.250;7.456;2023-08-07T00:27:42;15.18;;;5.45;;
22916;SDS011;11624;53.250;7.456;2023-08-07T00:30:12;14.75;;;5.03;;
22916;SDS011;11624;53.250;7.456;2023-08-07T00:32:40;15.70;;;5.70;;
22916;SDS011;11624;53.250;7.456;2023-08-07T00:35:09;13.95;;;5.70;;
22916;SDS011;11624;53.250;7.456;2023-08-07T00:37:37;15.60;;;5.47;;
22916;SDS011;11624;53.250;7.456;2023-08-07T00:40:05;15.60;;;5.72;;
22916;SDS011;11624;53.250;7.456;2023-08-07T00:42:34;12.75;;;5.30;;
22916;SDS011;11624;53.250;7.456;2023-08-07T00:45:03;12.88;;;5.22;;
22916;SDS011;11624;53.250;7.456;2023-08-07T00:47:33;11.27;;;4.43;;
22916;SDS011;11624;53.250;7.456;2023-08-07T00:50:02;11.90;;;4.95;;
22916;SDS011;11624;53.250;7.456;2023-08-07T00:52:32;13.68;;;4.60;;
22916;SDS011;11624;53.250;7.456;2023-08-07T00:55:00;12.23;;;4.43;;
22916;SDS011;11624;53.250;7.456;2023-08-07T00:57:29;10.93;;;4.28;;
22916;SDS011;11624;53.250;7.456;2023-08-07T00:59:58;13.80;;;4.32;;
22916;SDS011;11624;53.250;7.456;2023-08-07T01:02:28;15.43;;;4.60;;
22916;SDS011;11624;53.250;7.456;2023-08-07T01:04:57;12.88;;;4.75;;
22916;SDS011;11624;53.250;7.456;2023-08-07T01:07:26;14.02;;;4.43;;
22916;SDS011;11624;53.250;7.456;2023-08-07T01:09:54;14.43;;;4.78;;
22916;SDS011;11624;53.250;7.456;2023-08-07T01:12:24;12.50;;;4.57;;
22916;SDS011;11624;53.250;7.456;2023-08-07T01:14:58;12.40;;;4.97;;
22916;SDS011;11624;53.250;7.456;2023-08-07T01:17:31;11.63;;;4.68;;
22916;SDS011;11624;53.250;7.456;2023-08-07T01:20:03;11.90;;;4.78;;
22916;SDS011;11624;53.250;7.456;2023-08-07T01:22:33;15.55;;;4.75;;
22916;SDS011;11624;53.250;7.456;2023-08-07T01:25:01;10.60;;;4.30;;
22916;SDS011;11624;53.250;7.456;2023-08-07T01:27:31;12.48;;;4.28;;
22916;SDS011;11624;53.250;7.456;2023-08-07T01:30:07;14.30;;;4.50;;
22916;SDS011;11624;53.250;7.456;2023-08-07T01:32:42;12.02;;;4.35;;
22916;SDS011;11624;53.250;7.456;2023-08-07T01:35:16;12.15;;;4.32;;
22916;SDS011;11624;53.250;7.456;2023-08-07T01:37:46;10.70;;;4.43;;
22916;SDS011;11624;53.250;7.456;2023-08-07T01:40:16;12.80;;;4.50;;
22916;SDS011;11624;53.250;7.456;2023-08-07T01:42:45;11.23;;;4.05;;
22916;SDS011;11624;53.250;7.456;2023-08-07T01:45:14;14.05;;;4.10;;
22916;SDS011;11624;53.250;7.456;2023-08-07T01:47:49;13.80;;;3.90;;
22916;SDS011;11624;53.250;7.456;2023-08-07T01:50:17;10.15;;;3.90;;
22916;SDS011;11624;53.250;7.456;2023-08-07T01:52:47;11.93;;;3.97;;
22916;SDS011;11624;53.250;7.456;2023-08-07T01:55:16;10.48;;;4.22;;
22916;SDS011;11624;53.250;7.456;2023-08-07T01:57:51;11.55;;;4.05;;
22916;SDS011;11624;53.250;7.456;2023-08-07T02:00:20;13.20;;;4.35;;
22916;SDS011;11624;53.250;7.456;2023-08-07T02:02:48;12.70;;;4.47;;
22916;SDS011;11624;53.250;7.456;2023-08-07T02:05:17;11.32;;;4.05;;
22916;SDS011;11624;53.250;7.456;2023-08-07T02:07:45;9.95;;;3.97;;
22916;SDS011;11624;53.250;7.456;2023-08-07T02:10:15;9.25;;;3.92;;
22916;SDS011;11624;53.250;7.456;2023-08-07T02:12:43;11.05;;;4.03;;
22916;SDS011;11624;53.250;7.456;2023-08-07T02:15:11;8.27;;;3.00;;
22916;SDS011;11624;53.250;7.456;2023-08-07T02:17:39;14.43;;;3.88;;
22916;SDS011;11624;53.250;7.456;2023-08-07T02:20:08;9.35;;;3.40;;
22916;SDS011;11624;53.250;7.456;2023-08-07T02:22:37;9.63;;;3.22;;
22916;SDS011;11624;53.250;7.456;2023-08-07T02:25:06;9.73;;;3.20;;
22916;SDS011;11624;53.250;7.456;2023-08-07T02:27:38;18.40;;;3.17;;
22916;SDS011;11624;53.250;7.456;2023-08-07T02:30:07;9.52;;;3.33;;
22916;SDS011;11624;53.250;7.456;2023-08-07T02:32:35;10.32;;;3.35;;
22916;SDS011;11624;53.250;7.456;2023-08-07T02:35:04;9.77;;;3.28;;
22916;SDS011;11624;53.250;7.456;2023-08-07T02:37:32;8.43;;;3.10;;
22916;SDS011;11624;53.250;7.456;2023-08-07T02:40:00;8.70;;;3.22;;
22916;SDS011;11624;53.250;7.456;2023-08-07T02:42:28;10.50;;;3.38;;
22916;SDS011;11624;53.250;7.456;2023-08-07T02:44:58;9.55;;;3.40;;
22916;SDS011;11624;53.250;7.456;2023-08-07T02:47:26;8.35;;;3.08;;
22916;SDS011;11624;53.250;7.456;2023-08-07T02:49:54;8.65;;;3.15;;
22916;SDS011;11624;53.250;7.456;2023-08-07T02:52:22;9.98;;;3.30;;
22916;SDS011;11624;53.250;7.456;2023-08-07T02:54:50;8.13;;;3.10;;
22916;SDS011;11624;53.250;7.456;2023-08-07T02:57:18;8.50;;;3.20;;
22916;SDS011;11624;53.250;7.456;2023-08-07T02:59:46;9.93;;;3.10;;
22916;SDS011;11624;53.250;7.456;2023-08-07T03:02:16;9.02;;;3.20;;
22916;SDS011;11624;53.250;7.456;2023-08-07T03:04:44;8.80;;;3.10;;
22916;SDS011;11624;53.250;7.456;2023-08-07T03:07:12;12.13;;;3.70;;
22916;SDS011;11624;53.250;7.456;2023-08-07T03:09:40;12.35;;;3.50;;
22916;SDS011;11624;53.250;7.456;2023-08-07T03:12:09;8.05;;;3.35;;
22916;SDS011;11624;53.250;7.456;2023-08-07T03:14:37;8.85;;;3.50;;
22916;SDS011;11624;53.250;7.456;2023-08-07T03:17:05;9.20;;;3.20;;
22916;SDS011;11624;53.250;7.456;2023-08-07T03:19:35;11.73;;;3.42;;
22916;SDS011;11624;53.250;7.456;2023-08-07T03:22:03;13.10;;;3.90;;
22916;SDS011;11624;53.250;7.456;2023-08-07T03:24:31;9.35;;;3.33;;
22916;SDS011;11624;53.250;7.456;2023-08-07T03:27:00;11.25;;;3.58;;
22916;SDS011;11624;53.250;7.456;2023-08-07T03:29:28;11.35;;;3.25;;
22916;SDS011;11624;53.250;7.456;2023-08-07T03:31:56;10.02;;;3.17;;
22916;SDS011;11624;53.250;7.456;2023-08-07T03:37:23;12.23;;;2.85;;
22916;SDS011;11624;53.250;7.456;2023-08-07T03:39:51;10.63;;;2.55;;
22916;SDS011;11624;53.250;7.456;2023-08-07T03:42:19;9.85;;;2.42;;
22916;SDS011;11624;53.250;7.456;2023-08-07T03:44:47;10.40;;;2.45;;
22916;SDS011;11624;53.250;7.456;2023-08-07T03:47:15;12.68;;;2.60;;
22916;SDS011;11624;53.250;7.456;2023-08-07T03:49:43;7.82;;;2.47;;
22916;SDS011;11624;53.250;7.456;2023-08-07T03:52:13;7.05;;;2.33;;
22916;SDS011;11624;53.250;7.456;2023-08-07T03:54:42;8.68;;;2.20;;
22916;SDS011;11624;53.250;7.456;2023-08-07T03:57:10;10.32;;;2.33;;
22916;SDS011;11624;53.250;7.456;2023-08-07T03:59:38;7.22;;;2.20;;
22916;SDS011;11624;53.250;7.456;2023-08-07T04:02:07;9.45;;;2.42;;
22916;SDS011;11624;53.250;7.456;2023-08-07T04:04:35;7.68;;;1.80;;
22916;SDS011;11624;53.250;7.456;2023-08-07T04:07:03;8.23;;;1.85;;
22916;SDS011;11624;53.250;7.456;2023-08-07T04:09:33;7.03;;;2.10;;
22916;SDS011;11624;53.250;7.456;2023-08-07T04:12:01;8.93;;;2.20;;
22916;SDS011;11624;53.250;7.456;2023-08-07T04:14:30;10.20;;;1.90;;
22916;SDS011;11624;53.250;7.456;2023-08-07T04:16:58;16.15;;;3.05;;
22916;SDS011;11624;53.250;7.456;2023-08-07T04:19:27;10.75;;;2.60;;
22916;SDS011;11624;53.250;7.456;2023-08-07T04:21:55;6.20;;;1.80;;
22916;SDS011;11624;53.250;7.456;2023-08-07T04:24:23;9.40;;;2.00;;
22916;SDS011;11624;53.250;7.456;2023-08-07T04:26:53;8.45;;;2.15;;
22916;SDS011;11624;53.250;7.456;2023-08-07T04:29:21;6.82;;;2.00;;
22916;SDS011;11624;53.250;7.456;2023-08-07T04:31:49;6.20;;;1.75;;
22916;SDS011;11624;53.250;7.456;2023-08-07T04:34:17;6.95;;;2.13;;
22916;SDS011;11624;53.250;7.456;2023-08-07T04:36:45;9.13;;;1.90;;
22916;SDS011;11624;53.250;7.456;2023-08-07T04:39:13;16.27;;;2.65;;
22916;SDS011;11624;53.250;7.456;2023-08-07T04:41:41;8.00;;;2.10;;
22916;SDS011;11624;53.250;7.456;2023-08-07T04:44:11;9.77;;;2.10;;
22916;SDS011;11624;53.250;7.456;2023-08-07T04:46:39;6.43;;;1.95;;
22916;SDS011;11624;53.250;7.456;2023-08-07T04:49:07;8.43;;;2.20;;
22916;SDS011;11624;53.250;7.456;2023-08-07T04:51:36;9.05;;;2.17;;
22916;SDS011;11624;53.250;7.456;2023-08-07T04:54:04;11.00;;;2.40;;
22916;SDS011;11624;53.250;7.456;2023-08-07T04:56:32;9.57;;;2.40;;
22916;SDS011;11624;53.250;7.456;2023-08-07T04:59:00;11.93;;;2.63;;
22916;SDS011;11624;53.250;7.456;2023-08-07T05:01:29;11.43;;;2.75;;
22916;SDS011;11624;53.250;7.456;2023-08-07T05:03:57;15.80;;;2.80;;
22916;SDS011;11624;53.250;7.456;2023-08-07T05:06:26;14.15;;;2.58;;
22916;SDS011;11624;53.250;7.456;2023-08-07T05:08:54;14.57;;;3.15;;
22916;SDS011;11624;53.250;7.456;2023-08-07T05:11:22;12.07;;;2.75;;
22916;SDS011;11624;53.250;7.456;2023-08-07T05:13:50;13.70;;;2.97;;
22916;SDS011;11624;53.250;7.456;2023-08-07T05:16:18;12.20;;;2.58;;
22916;SDS011;11624;53.250;7.456;2023-08-07T05:18:47;10.20;;;2.53;;
22916;SDS011;11624;53.250;7.456;2023-08-07T05:21:16;12.68;;;2.97;;
22916;SDS011;11624;53.250;7.456;2023-08-07T05:23:45;11.82;;;2.80;;
22916;SDS011;11624;53.250;7.456;2023-08-07T05:26:16;12.52;;;3.30;;
22916;SDS011;11624;53.250;7.456;2023-08-07T05:28:44;11.10;;;2.80;;
22916;SDS011;11624;53.250;7.456;2023-08-07T05:31:12;11.40;;;2.72;;
22916;SDS011;11624;53.250;7.456;2023-08-07T05:33:40;14.43;;;3.17;;
22916;SDS011;11624;53.250;7.456;2023-08-07T05:36:10;12.05;;;3.13;;
22916;SDS011;11624;53.250;7.456;2023-08-07T05:38:38;14.75;;;3.30;;
22916;SDS011;11624;53.250;7.456;2023-08-07T05:41:06;12.48;;;2.88;;
22916;SDS011;11624;53.250;7.456;2023-08-07T05:43:36;15.30;;;3.00;;
22916;SDS011;11624;53.250;7.456;2023-08-07T05:46:04;13.30;;;3.30;;
22916;SDS011;11624;53.250;7.456;2023-08-07T05:48:32;13.98;;;2.97;;
22916;SDS011;11624;53.250;7.456;2023-08-07T05:51:00;14.82;;;3.30;;
22916;SDS011;11624;53.250;7.456;2023-08-07T05:53:29;17.33;;;4.13;;
22916;SDS011;11624;53.250;7.456;2023-08-07T05:55:58;15.55;;;3.60;;
22916;SDS011;11624;53.250;7.456;2023-08-07T05:58:26;13.50;;;3.88;;
22916;SDS011;11624;53.250;7.456;2023-08-07T06:00:54;14.20;;;3.55;;
22916;SDS011;11624;53.250;7.456;2023-08-07T06:03:22;17.63;;;4.40;;
22916;SDS011;11624;53.250;7.456;2023-08-07T06:05:50;17.13;;;4.05;;
22916;SDS011;11624;53.250;7.456;2023-08-07T06:08:18;19.80;;;4.00;;
22916;SDS011;11624;53.250;7.456;2023-08-07T06:10:47;18.75;;;3.38;;
22916;SDS011;11624;53.250;7.456;2023-08-07T06:13:16;12.73;;;3.20;;
22916;SDS011;11624;53.250;7.456;2023-08-07T06:16:01;11.32;;;3.08;;
22916;SDS011;11624;53.250;7.456;2023-08-07T06:18:29;18.67;;;3.88;;
22916;SDS011;11624;53.250;7.456;2023-08-07T06:20:57;11.20;;;3.50;;
22916;SDS011;11624;53.250;7.456;2023-08-07T06:23:25;17.40;;;3.63;;
22916;SDS011;11624;53.250;7.456;2023-08-07T06:25:55;17.02;;;4.15;;
22916;SDS011;11624;53.250;7.456;2023-08-07T06:28:25;13.50;;;3.22;;
22916;SDS011;11624;53.250;7.456;2023-08-07T06:30:53;19.30;;;4.20;;
22916;SDS011;11624;53.250;7.456;2023-08-07T06:33:27;12.68;;;3.42;;
22916;SDS011;11624;53.250;7.456;2023-08-07T06:35:55;19.75;;;4.10;;
22916;SDS011;11624;53.250;7.456;2023-08-07T06:38:24;15.25;;;3.28;;
22916;SDS011;11624;53.250;7.456;2023-08-07T06:40:52;21.00;;;4.25;;
22916;SDS011;11624;53.250;7.456;2023-08-07T06:43:22;15.93;;;3.20;;
22916;SDS011;11624;53.250;7.456;2023-08-07T06:45:50;19.80;;;3.58;;
22916;SDS011;11624;53.250;7.456;2023-08-07T06:48:18;16.40;;;3.00;;
22916;SDS011;11624;53.250;7.456;2023-08-07T06:50:47;12.77;;;3.08;;
22916;SDS011;11624;53.250;7.456;2023-08-07T06:53:15;14.05;;;3.60;;
22916;SDS011;11624;53.250;7.456;2023-08-07T06:55:44;19.92;;;4.22;;
22916;SDS011;11624;53.250;7.456;2023-08-07T06:58:12;16.35;;;3.20;;
22916;SDS011;11624;53.250;7.456;2023-08-07T07:00:42;14.48;;;3.45;;
22916;SDS011;11624;53.250;7.456;2023-08-07T07:03:10;14.80;;;3.58;;
22916;SDS011;11624;53.250;7.456;2023-08-07T07:05:38;14.07;;;3.25;;
22916;SDS011;11624;53.250;7.456;2023-08-07T07:08:09;13.57;;;3.05;;
22916;SDS011;11624;53.250;7.456;2023-08-07T07:10:37;12.50;;;3.40;;
22916;SDS011;11624;53.250;7.456;2023-08-07T07:13:05;10.50;;;3.55;;
22916;SDS011;11624;53.250;7.456;2023-08-07T07:15:35;16.55;;;3.42;;
22916;SDS011;11624;53.250;7.456;2023-08-07T07:18:05;16.35;;;3.40;;
22916;SDS011;11624;53.250;7.456;2023-08-07T07:20:33;20.20;;;3.90;;
22916;SDS011;11624;53.250;7.456;2023-08-07T07:23:01;13.77;;;3.65;;
22916;SDS011;11624;53.250;7.456;2023-08-07T07:25:28;14.60;;;3.35;;
22916;SDS011;11624;53.250;7.456;2023-08-07T07:27:57;12.20;;;3.15;;
22916;SDS011;11624;53.250;7.456;2023-08-07T07:30:28;15.98;;;3.10;;
22916;SDS011;11624;53.250;7.456;2023-08-07T07:32:57;14.88;;;3.03;;
22916;SDS011;11624;53.250;7.456;2023-08-07T07:35:26;11.23;;;3.03;;
22916;SDS011;11624;53.250;7.456;2023-08-07T07:37:54;17.00;;;3.25;;
22916;SDS011;11624;53.250;7.456;2023-08-07T07:40:23;16.00;;;3.08;;
22916;SDS011;11624;53.250;7.456;2023-08-07T07:42:51;14.32;;;3.45;;
22916;SDS011;11624;53.250;7.456;2023-08-07T07:45:20;11.30;;;2.35;;
22916;SDS011;11624;53.250;7.456;2023-08-07T07:47:50;16.85;;;3.28;;
22916;SDS011;11624;53.250;7.456;2023-08-07T07:50:21;15.85;;;3.20;;
22916;SDS011;11624;53.250;7.456;2023-08-07T07:52:53;15.18;;;2.85;;
22916;SDS011;11624;53.250;7.456;2023-08-07T07:55:22;12.70;;;2.75;;
22916;SDS011;11624;53.250;7.456;2023-08-07T07:57:54;10.23;;;2.88;;
22916;SDS011;11624;53.250;7.456;2023-08-07T08:00:25;14.07;;;3.25;;
22916;SDS011;11624;53.250;7.456;2023-08-07T08:02:53;13.70;;;3.10;;
22916;SDS011;11624;53.250;7.456;2023-08-07T08:05:22;16.25;;;3.42;;
22916;SDS011;11624;53.250;7.456;2023-08-07T08:07:50;12.65;;;2.92;;
22916;SDS011;11624;53.250;7.456;2023-08-07T08:10:20;15.30;;;3.33;;
22916;SDS011;11624;53.250;7.456;2023-08-07T08:15:47;16.13;;;2.92;;
22916;SDS011;11624;53.250;7.456;2023-08-07T08:18:16;11.30;;;2.80;;
22916;SDS011;11624;53.250;7.456;2023-08-07T08:20:44;13.77;;;3.28;;
22916;SDS011;11624;53.250;7.456;2023-08-07T08:23:12;13.88;;;2.50;;
22916;SDS011;11624;53.250;7.456;2023-08-07T08:25:42;11.65;;;2.47;;
22916;SDS011;11624;53.250;7.456;2023-08-07T08:28:11;10.45;;;2.20;;
22916;SDS011;11624;53.250;7.456;2023-08-07T08:30:39;12.63;;;2.40;;
22916;SDS011;11624;53.250;7.456;2023-08-07T08:33:07;11.60;;;2.42;;
22916;SDS011;11624;53.250;7.456;2023-08-07T08:35:38;11.35;;;2.80;;
22916;SDS011;11624;53.250;7.456;2023-08-07T08:38:07;11.43;;;2.25;;
22916;SDS011;11624;53.250;7.456;2023-08-07T08:40:35;11.43;;;2.40;;
22916;SDS011;11624;53.250;7.456;2023-08-07T08:43:07;8.80;;;2.30;;
22916;SDS011;11624;53.250;7.456;2023-08-07T08:45:38;11.10;;;2.90;;
22916;SDS011;11624;53.250;7.456;2023-08-07T08:48:08;11.73;;;2.67;;
22916;SDS011;11624;53.250;7.456;2023-08-07T08:50:44;13.65;;;2.80;;
22916;SDS011;11624;53.250;7.456;2023-08-07T08:53:12;9.15;;;2.20;;
22916;SDS011;11624;53.250;7.456;2023-08-07T08:55:41;9.32;;;2.00;;
22916;SDS011;11624;53.250;7.456;2023-08-07T08:58:16;6.85;;;2.70;;
22916;SDS011;11624;53.250;7.456;2023-08-07T09:00:47;8.43;;;2.20;;
22916;SDS011;11624;53.250;7.456;2023-08-07T09:03:16;8.70;;;2.10;;
22916;SDS011;11624;53.250;7.456;2023-08-07T09:05:46;9.85;;;2.28;;
22916;SDS011;11624;53.250;7.456;2023-08-07T09:08:14;8.88;;;2.10;;
22916;SDS011;11624;53.250;7.456;2023-08-07T09:10:43;9.02;;;2.42;;
22916;SDS011;11624;53.250;7.456;2023-08-07T09:13:13;11.18;;;2.17;;
22916;SDS011;11624;53.250;7.456;2023-08-07T09:15:46;8.55;;;1.98;;
22916;SDS011;11624;53.250;7.456;2023-08-07T09:18:17;8.80;;;2.30;;
22916;SDS011;11624;53.250;7.456;2023-08-07T09:20:57;10.30;;;2.17;;
22916;SDS011;11624;53.250;7.456;2023-08-07T09:23:28;10.93;;;2.13;;
22916;SDS011;11624;53.250;7.456;2023-08-07T09:26:04;10.70;;;2.30;;
22916;SDS011;11624;53.250;7.456;2023-08-07T09:28:36;9.57;;;2.20;;
22916;SDS011;11624;53.250;7.456;2023-08-07T09:31:14;8.60;;;2.00;;
22916;SDS011;11624;53.250;7.456;2023-08-07T09:33:54;7.15;;;1.92;;
22916;SDS011;11624;53.250;7.456;2023-08-07T09:36:26;5.90;;;1.90;;
22916;SDS011;11624;53.250;7.456;2023-08-07T09:38:54;13.52;;;2.30;;
22916;SDS011;11624;53.250;7.456;2023-08-07T09:41:26;8.10;;;2.05;;
22916;SDS011;11624;53.250;7.456;2023-08-07T09:44:01;12.50;;;2.67;;
22916;SDS011;11624;53.250;7.456;2023-08-07T09:46:40;10.02;;;2.58;;
22916;SDS011;11624;53.250;7.456;2023-08-07T09:49:10;8.52;;;1.92;;
22916;SDS011;11624;53.250;7.456;2023-08-07T09:51:41;8.35;;;1.90;;
22916;SDS011;11624;53.250;7.456;2023-08-07T09:54:17;10.13;;;2.65;;
22916;SDS011;11624;53.250;7.456;2023-08-07T09:56:51;10.90;;;2.65;;
22916;SDS011;11624;53.250;7.456;2023-08-07T09:59:31;12.45;;;2.75;;
22916;SDS011;11624;53.250;7.456;2023-08-07T10:02:00;12.52;;;2.88;;
22916;SDS011;11624;53.250;7.456;2023-08-07T10:04:30;13.88;;;2.80;;
22916;SDS011;11624;53.250;7.456;2023-08-07T10:06:58;9.77;;;2.80;;
22916;SDS011;11624;53.250;7.456;2023-08-07T10:09:28;13.07;;;2.75;;
22916;SDS011;11624;53.250;7.456;2023-08-07T10:11:58;13.73;;;2.80;;
22916;SDS011;11624;53.250;7.456;2023-08-07T10:14:27;13.23;;;2.95;;
22916;SDS011;11624;53.250;7.456;2023-08-07T10:17:05;12.75;;;2.72;;
22916;SDS011;11624;53.250;7.456;2023-08-07T10:19:36;11.20;;;2.78;;
22916;SDS011;11624;53.250;7.456;2023-08-07T10:22:05;12.32;;;2.53;;
22916;SDS011;11624;53.250;7.456;2023-08-07T10:24:35;9.43;;;2.15;;
22916;SDS011;11624;53.250;7.456;2023-08-07T10:27:11;8.43;;;2.10;;
22916;SDS011;11624;53.250;7.456;2023-08-07T10:29:43;10.18;;;2.97;;
22916;SDS011;11624;53.250;7.456;2023-08-07T10:32:13;10.25;;;2.13;;
22916;SDS011;11624;53.250;7.456;2023-08-07T10:34:52;9.77;;;2.50;;
22916;SDS011;11624;53.250;7.456;2023-08-07T10:40:18;8.60;;;2.40;;
22916;SDS011;11624;53.250;7.456;2023-08-07T10:42:50;16.40;;;3.13;;
22916;SDS011;11624;53.250;7.456;2023-08-07T10:45:25;13.98;;;2.58;;
22916;SDS011;11624;53.250;7.456;2023-08-07T10:50:50;8.63;;;2.03;;
22916;SDS011;11624;53.250;7.456;2023-08-07T10:53:28;11.00;;;2.15;;
22916;SDS011;11624;53.250;7.456;2023-08-07T10:55:57;7.60;;;2.10;;
22916;SDS011;11624;53.250;7.456;2023-08-07T10:58:30;7.00;;;1.80;;
22916;SDS011;11624;53.250;7.456;2023-08-07T11:01:17;13.35;;;2.50;;
22916;SDS011;11624;53.250;7.456;2023-08-07T11:03:52;12.80;;;2.45;;
22916;SDS011;11624;53.250;7.456;2023-08-07T11:06:21;11.65;;;2.60;;
22916;SDS011;11624;53.250;7.456;2023-08-07T11:08:50;9.93;;;2.42;;
22916;SDS011;11624;53.250;7.456;2023-08-07T11:11:29;7.30;;;1.70;;
22916;SDS011;11624;53.250;7.456;2023-08-07T11:14:16;7.63;;;1.88;;
22916;SDS011;11624;53.250;7.456;2023-08-07T11:16:46;12.95;;;2.53;;
22916;SDS011;11624;53.250;7.456;2023-08-07T11:19:17;10.93;;;2.88;;
22916;SDS011;11624;53.250;7.456;2023-08-07T11:21:45;12.07;;;2.42;;
22916;SDS011;11624;53.250;7.456;2023-08-07T11:24:15;11.48;;;2.70;;
22916;SDS011;11624;53.250;7.456;2023-08-07T11:26:46;10.52;;;2.45;;
22916;SDS011;11624;53.250;7.456;2023-08-07T11:29:15;15.00;;;3.20;;
22916;SDS011;11624;53.250;7.456;2023-08-07T11:31:44;16.50;;;3.08;;
22916;SDS011;11624;53.250;7.456;2023-08-07T11:34:13;11.48;;;2.90;;
22916;SDS011;11624;53.250;7.456;2023-08-07T11:36:43;10.63;;;2.92;;
22916;SDS011;11624;53.250;7.456;2023-08-07T11:39:13;10.68;;;2.78;;
22916;SDS011;11624;53.250;7.456;2023-08-07T11:41:43;14.68;;;2.88;;
22916;SDS011;11624;53.250;7.456;2023-08-07T11:44:12;10.73;;;2.83;;
22916;SDS011;11624;53.250;7.456;2023-08-07T11:46:40;11.27;;;2.72;;
22916;SDS011;11624;53.250;7.456;2023-08-07T11:49:08;15.00;;;2.50;;
22916;SDS011;11624;53.250;7.456;2023-08-07T11:51:37;14.07;;;2.33;;
22916;SDS011;11624;53.250;7.456;2023-08-07T11:54:07;12.55;;;2.70;;
22916;SDS011;11624;53.250;7.456;2023-08-07T11:56:35;9.38;;;2.25;;
22916;SDS011;11624;53.250;7.456;2023-08-07T11:59:04;12.85;;;2.33;;
22916;SDS011;11624;53.250;7.456;2023-08-07T12:01:36;11.30;;;2.67;;
22916;SDS011;11624;53.250;7.456;2023-08-07T12:04:09;11.77;;;2.65;;
22916;SDS011;11624;53.250;7.456;2023-08-07T12:06:37;11.98;;;3.05;;
22916;SDS011;11624;53.250;7.456;2023-08-07T12:09:08;15.30;;;2.80;;
22916;SDS011;11624;53.250;7.456;2023-08-07T12:11:39;12.25;;;2.40;;
22916;SDS011;11624;53.250;7.456;2023-08-07T12:14:07;9.30;;;2.50;;
22916;SDS011;11624;53.250;7.456;2023-08-07T12:16:35;11.48;;;2.22;;
22916;SDS011;11624;53.250;7.456;2023-08-07T12:19:03;12.23;;;2.80;;
22916;SDS011;11624;53.250;7.456;2023-08-07T12:21:32;9.15;;;2.38;;
22916;SDS011;11624;53.250;7.456;2023-08-07T12:24:00;10.07;;;2.05;;
22916;SDS011;11624;53.250;7.456;2023-08-07T12:26:30;8.38;;;2.30;;
22916;SDS011;11624;53.250;7.456;2023-08-07T12:28:58;9.68;;;1.88;;
22916;SDS011;11624;53.250;7.456;2023-08-07T12:31:26;12.57;;;2.63;;
22916;SDS011;11624;53.250;7.456;2023-08-07T12:33:54;11.88;;;2.47;;
22916;SDS011;11624;53.250;7.456;2023-08-07T12:36:42;10.02;;;2.70;;
22916;SDS011;11624;53.250;7.456;2023-08-07T12:39:10;8.23;;;1.80;;
22916;SDS011;11624;53.250;7.456;2023-08-07T12:41:40;12.68;;;2.30;;
22916;SDS011;11624;53.250;7.456;2023-08-07T12:44:30;12.25;;;2.78;;
22916;SDS011;11624;53.250;7.456;2023-08-07T12:47:01;10.90;;;2.67;;
22916;SDS011;11624;53.250;7.456;2023-08-07T12:49:29;9.98;;;2.33;;
22916;SDS011;11624;53.250;7.456;2023-08-07T12:51:57;12.43;;;3.38;;
22916;SDS011;11624;53.250;7.456;2023-08-07T12:54:30;13.07;;;2.83;;
22916;SDS011;11624;53.250;7.456;2023-08-07T12:57:01;12.93;;;2.80;;
22916;SDS011;11624;53.250;7.456;2023-08-07T12:59:29;11.02;;;2.67;;
22916;SDS011;11624;53.250;7.456;2023-08-07T13:02:07;12.63;;;1.98;;
22916;SDS011;11624;53.250;7.456;2023-08-07T13:04:35;9.10;;;2.20;;
22916;SDS011;11624;53.250;7.456;2023-08-07T13:07:03;7.55;;;2.33;;
22916;SDS011;11624;53.250;7.456;2023-08-07T13:09:32;7.78;;;2.17;;
22916;SDS011;11624;53.250;7.456;2023-08-07T13:12:05;8.55;;;2.28;;
22916;SDS011;11624;53.250;7.456;2023-08-07T13:14:34;13.55;;;2.60;;
22916;SDS011;11624;53.250;7.456;2023-08-07T13:17:02;10.75;;;2.40;;
22916;SDS011;11624;53.250;7.456;2023-08-07T13:19:31;7.28;;;2.22;;
22916;SDS011;11624;53.250;7.456;2023-08-07T13:22:30;10.32;;;2.85;;
22916;SDS011;11624;53.250;7.456;2023-08-07T13:25:01;10.93;;;2.28;;
22916;SDS011;11624;53.250;7.456;2023-08-07T13:27:32;11.05;;;2.08;;
22916;SDS011;11624;53.250;7.456;2023-08-07T13:30:01;8.13;;;2.80;;
22916;SDS011;11624;53.250;7.456;2023-08-07T13:32:30;7.15;;;1.92;;
22916;SDS011;11624;53.250;7.456;2023-08-07T13:34:58;5.72;;;1.63;;
22916;SDS011;11624;53.250;7.456;2023-08-07T13:37:26;11.55;;;3.03;;
22916;SDS011;11624;53.250;7.456;2023-08-07T13:39:54;12.85;;;2.10;;
22916;SDS011;11624;53.250;7.456;2023-08-07T13:42:23;8.95;;;2.30;;
22916;SDS011;11624;53.250;7.456;2023-08-07T13:44:53;9.27;;;2.38;;
22916;SDS011;11624;53.250;7.456;2023-08-07T13:47:22;6.88;;;1.67;;
22916;SDS011;11624;53.250;7.456;2023-08-07T13:49:52;11.00;;;2.35;;
22916;SDS011;11624;53.250;7.456;2023-08-07T13:52:21;8.70;;;2.20;;
22916;SDS011;11624;53.250;7.456;2023-08-07T13:54:49;10.10;;;2.33;;
22916;SDS011;11624;53.250;7.456;2023-08-07T13:57:18;6.03;;;1.77;;
22916;SDS011;11624;53.250;7.456;2023-08-07T13:59:46;8.82;;;2.10;;
22916;SDS011;11624;53.250;7.456;2023-08-07T14:02:15;11.48;;;2.65;;
22916;SDS011;11624;53.250;7.456;2023-08-07T14:04:44;9.98;;;2.10;;
22916;SDS011;11624;53.250;7.456;2023-08-07T14:07:12;12.23;;;2.78;;
22916;SDS011;11624;53.250;7.456;2023-08-07T14:09:40;6.45;;;2.22;;
22916;SDS011;11624;53.250;7.456;2023-08-07T14:12:09;8.90;;;2.70;;
22916;SDS011;11624;53.250;7.456;2023-08-07T14:14:37;11.75;;;2.75;;
22916;SDS011;11624;53.250;7.456;2023-08-07T14:17:05;8.30;;;2.30;;
22916;SDS011;11624;53.250;7.456;2023-08-07T14:19:34;9.80;;;2.63;;
22916;SDS011;11624;53.250;7.456;2023-08-07T14:22:03;11.07;;;2.70;;
22916;SDS011;11624;53.250;7.456;2023-08-07T14:24:31;12.07;;;3.22;;
22916;SDS011;11624;53.250;7.456;2023-08-07T14:26:59;11.70;;;2.70;;
22916;SDS011;11624;53.250;7.456;2023-08-07T14:29:29;11.43;;;3.13;;
22916;SDS011;11624;53.250;7.456;2023-08-07T14:32:02;14.20;;;3.20;;
22916;SDS011;11624;53.250;7.456;2023-08-07T14:34:34;10.88;;;2.50;;
22916;SDS011;11624;53.250;7.456;2023-08-07T14:37:03;13.35;;;2.72;;
22916;SDS011;11624;53.250;7.456;2023-08-07T14:39:31;10.90;;;2.65;;
22916;SDS011;11624;53.250;7.456;2023-08-07T14:42:03;14.77;;;2.88;;
22916;SDS011;11624;53.250;7.456;2023-08-07T14:44:31;12.25;;;2.97;;
22916;SDS011;11624;53.250;7.456;2023-08-07T14:47:02;10.85;;;2.60;;
22916;SDS011;11624;53.250;7.456;2023-08-07T14:49:30;10.55;;;2.67;;
22916;SDS011;11624;53.250;7.456;2023-08-07T14:51:59;9.52;;;2.30;;
22916;SDS011;11624;53.250;7.456;2023-08-07T14:54:28;14.15;;;2.72;;
22916;SDS011;11624;53.250;7.456;2023-08-07T14:56:57;12.55;;;2.60;;
22916;SDS011;11624;53.250;7.456;2023-08-07T14:59:25;11.95;;;2.88;;
22916;SDS011;11624;53.250;7.456;2023-08-07T15:01:53;10.57;;;2.40;;
22916;SDS011;11624;53.250;7.456;2023-08-07T15:04:22;10.73;;;2.72;;